Time;durP1;ratioP1;P1;durP2;ratioP2;P2;SDS_P1;SDS_P2;PMS_P1;PMS_P2;Temp;Humidity;BMP_temperature;BMP_pressure;BME280_temperature;BME280_humidity;BME280_pressure;Samples;Min_cycle;Max_cycle;Signal;HPM_P1;HPM_P2
2023/09/21 00:01:33;;;;;;;;;;;;;;;17.69;83.12;99915.66;5045764;28;20147;-65
2023/09/21 00:04:00;;;;;;;;;;;;;;;17.71;83.35;99908.56;5046103;28;19917;-64
2023/09/21 00:06:30;;;;;;;;;;;;;;;17.71;82.89;99901.56;5046230;28;19910;-65
2023/09/21 00:08:55;;;;;;;;;;;;;;;17.73;83.18;99912.06;5028416;28;19909;-65
2023/09/21 00:11:20;;;;;;;;;;;;;;;17.74;82.82;99905.88;5046083;28;19932;-65
2023/09/21 00:13:45;;;;;;;;;;;;;;;17.71;83.10;99898.03;5046105;28;19936;-65
2023/09/21 00:16:11;;;;;;;;;;;;;;;17.71;83.03;99900.66;5045957;28;19909;-65
2023/09/21 00:18:38;;;;;;;;;;;;;;;17.70;82.89;99896.31;5045302;28;19948;-65
2023/09/21 00:21:06;;;;;;;;;;;;;;;17.71;82.85;99898.03;5045853;28;19909;-65
2023/09/21 00:23:31;;;;;;;;;;;;;;;17.71;82.81;99893.66;5045967;28;19973;-65
2023/09/21 00:26:00;;;;;;;;;;;;;;;17.73;82.70;99886.56;5045880;28;20398;-65
2023/09/21 00:28:26;;;;;;;;;;;;;;;17.73;82.58;99885.72;5027877;28;19913;-65
2023/09/21 00:30:52;;;;;;;;;;;;;;;17.76;82.35;99890.06;5045710;28;19909;-65
2023/09/21 00:33:18;;;;;;;;;;;;;;;17.77;82.19;99873.31;5045207;28;20153;-65
2023/09/21 00:35:43;;;;;;;;;;;;;;;17.77;82.30;99870.69;5045424;28;20017;-65
2023/09/21 00:38:10;;;;;;;;;;;;;;;17.78;82.30;99870.66;5027983;28;19909;-65
2023/09/21 00:40:38;;;;;;;;;;;;;;;17.78;81.73;99868.03;5045590;28;19973;-65
2023/09/21 00:43:04;;;;;;;;;;;;;;;17.80;81.95;99860.09;5045599;28;19909;-65
2023/09/21 00:45:30;;;;;;;;;;;;;;;17.80;81.90;99863.59;5045238;28;20150;-65
2023/09/21 00:47:55;;;;;;;;;;;;;;;17.81;81.84;99854.78;5027778;28;19925;-65
2023/09/21 00:50:22;;;;;;;;;;;;;;;17.82;81.64;99853.03;5027707;28;19920;-65
2023/09/21 00:52:51;;;;;;;;;;;;;;;17.83;81.56;99853.00;5045222;28;19913;-65
2023/09/21 00:55:21;;;;;;;;;;;;;;;17.83;81.66;99852.09;5045040;28;19940;-65
2023/09/21 00:57:46;;;;;;;;;;;;;;;17.81;81.63;99849.50;5045427;28;19947;-65
2023/09/21 01:00:13;;;;;;;;;;;;;;;17.80;81.73;99833.72;5045232;28;20059;-65
2023/09/21 01:02:39;;;;;;;;;;;;;;;17.79;81.54;99837.28;5045073;28;19932;-65
2023/09/21 01:05:08;;;;;;;;;;;;;;;17.76;81.74;99837.38;5044147;28;19915;-65
2023/09/21 01:07:36;;;;;;;;;;;;;;;17.72;81.86;99836.53;5045501;28;19980;-65
2023/09/21 01:10:03;;;;;;;;;;;;;;;17.70;81.91;99833.09;5044944;28;19909;-65
2023/09/21 01:12:28;;;;;;;;;;;;;;;17.66;81.94;99832.28;5044889;28;19909;-65
2023/09/21 01:15:04;;;;;;;;;;;;;;;17.64;81.95;99826.19;5044803;28;19909;-64
2023/09/21 01:17:30;;;;;;;;;;;;;;;17.62;82.24;99829.75;5044237;28;19956;-65
2023/09/21 01:19:56;;;;;;;;;;;;;;;17.59;82.29;99824.56;5044793;28;20162;-65
2023/09/21 01:22:22;;;;;;;;;;;;;;;17.56;82.39;99813.16;5044687;28;19980;-65
2023/09/21 01:24:47;;;;;;;;;;;;;;;17.52;82.32;99813.28;5044699;28;19916;-65
2023/09/21 01:27:13;;;;;;;;;;;;;;;17.50;82.52;99808.03;5044550;28;19913;-65
2023/09/21 01:29:38;;;;;;;;;;;;;;;17.49;82.28;99808.94;5044879;28;19967;-65
2023/09/21 01:32:03;;;;;;;;;;;;;;;17.47;82.52;99800.22;5043622;28;20146;-65
2023/09/21 01:34:28;;;;;;;;;;;;;;;17.46;82.51;99798.47;5044394;28;19913;-65
2023/09/21 01:36:55;;;;;;;;;;;;;;;17.45;82.84;99798.50;5044532;28;19909;-65
2023/09/21 01:39:21;;;;;;;;;;;;;;;17.43;82.70;99790.63;5044325;28;19984;-65
2023/09/21 01:41:46;;;;;;;;;;;;;;;17.42;82.97;99791.53;5044462;28;19909;-65
2023/09/21 01:44:12;;;;;;;;;;;;;;;17.39;82.97;99788.97;5044378;28;19909;-65
2023/09/21 01:46:37;;;;;;;;;;;;;;;17.38;82.96;99785.47;5043935;28;19909;-65
2023/09/21 01:49:03;;;;;;;;;;;;;;;17.36;82.81;99776.72;5044025;28;19929;-65
2023/09/21 01:51:28;;;;;;;;;;;;;;;17.36;82.83;99786.41;5044158;28;19916;-65
2023/09/21 01:53:54;;;;;;;;;;;;;;;17.34;83.25;99777.69;5044138;28;19917;-65
2023/09/21 01:56:21;;;;;;;;;;;;;;;17.32;83.03;99780.34;5044243;28;19955;-65
2023/09/21 01:58:47;;;;;;;;;;;;;;;17.31;82.98;99773.34;5044046;28;19909;-65
2023/09/21 02:01:16;;;;;;;;;;;;;;;17.30;83.24;99776.84;5043785;28;19920;-65
2023/09/21 02:03:41;;;;;;;;;;;;;;;17.26;83.58;99772.56;5042925;28;20017;-65
2023/09/21 02:06:07;;;;;;;;;;;;;;;17.23;83.11;99771.78;5043829;28;19975;-65
2023/09/21 02:08:33;;;;;;;;;;;;;;;17.26;82.94;99769.06;5043810;28;19909;-65
2023/09/21 02:10:58;;;;;;;;;;;;;;;17.28;82.58;99768.16;5043894;28;20067;-65
2023/09/21 02:13:24;;;;;;;;;;;;;;;17.33;82.54;99765.41;5026059;28;19916;-65
2023/09/21 02:15:51;;;;;;;;;;;;;;;17.37;81.69;99761.81;5043635;28;19936;-65
2023/09/21 02:18:16;;;;;;;;;;;;;;;17.43;81.42;99760.81;5043374;28;19920;-65
2023/09/21 02:20:44;;;;;;;;;;;;;;;17.47;80.83;99757.22;5043765;28;19909;-65
2023/09/21 02:23:10;;;;;;;;;;;;;;;17.54;80.45;99751.75;5043694;28;19909;-65
2023/09/21 02:25:38;;;;;;;;;;;;;;;17.63;80.01;99755.09;5043538;28;19916;-65
2023/09/21 02:28:09;;;;;;;;;;;;;;;17.70;79.09;99748.78;5043645;28;19947;-65
2023/09/21 02:30:36;;;;;;;;;;;;;;;17.75;79.74;99748.66;5043581;28;19909;-65
2023/09/21 02:33:02;;;;;;;;;;;;;;;17.75;79.00;99749.53;5043229;28;19913;-65
2023/09/21 02:35:31;;;;;;;;;;;;;;;17.80;78.53;99746.78;5043451;28;19909;-65
2023/09/21 02:37:57;;;;;;;;;;;;;;;17.80;79.06;99745.03;5043496;28;20062;-65
2023/09/21 02:40:23;;;;;;;;;;;;;;;17.82;79.19;99745.00;5043522;28;19909;-65
2023/09/21 02:42:49;;;;;;;;;;;;;;;17.85;78.99;99739.63;5043198;28;19929;-65
2023/09/21 02:45:15;;;;;;;;;;;;;;;17.84;78.87;99738.78;5043330;28;19909;-65
2023/09/21 02:47:44;;;;;;;;;;;;;;;17.85;79.02;99735.22;5043268;28;20170;-65
2023/09/21 02:50:44;;;;;;;;;;;;;;;17.83;79.02;99738.78;5043308;28;20028;-65
2023/09/21 02:53:06;;;;;;;;;;;;;;;17.77;79.08;99734.56;5037734;28;20078;-65
2023/09/21 02:55:33;;;;;;;;;;;;;;;17.76;79.38;99743.38;5043074;28;20222;-65
2023/09/21 02:58:04;;;;;;;;;;;;;;;17.74;78.87;99734.59;5043147;28;19972;-65
2023/09/21 03:00:34;;;;;;;;;;;;;;;17.75;79.35;99736.34;5043349;28;19909;-65
2023/09/21 03:03:00;;;;;;;;;;;;;;;17.73;79.04;99732.91;5025633;28;19910;-65
2023/09/21 03:05:27;;;;;;;;;;;;;;;17.72;79.13;99736.44;5043336;28;19910;-65
2023/09/21 03:07:54;;;;;;;;;;;;;;;17.72;79.40;99729.38;5042420;28;19967;-65
2023/09/21 03:10:20;;;;;;;;;;;;;;;17.72;79.48;99720.63;5043097;28;20135;-65
2023/09/21 03:12:48;;;;;;;;;;;;;;;17.70;79.53;99725.06;5042906;28;19959;-65
2023/09/21 03:15:15;;;;;;;;;;;;;;;17.70;79.75;99712.75;5043284;28;19913;-65
2023/09/21 03:17:41;;;;;;;;;;;;;;;17.70;79.58;99717.16;5043108;28;19983;-65
2023/09/21 03:20:28;;;;;;;;;;;;;;;17.68;79.13;99724.22;5042967;28;20059;-65
2023/09/21 03:22:55;;;;;;;;;;;;;;;17.70;79.60;99722.44;5042350;28;20044;-65
2023/09/21 03:25:32;;;;;;;;;;;;;;;17.71;79.78;99726.78;5042960;28;19909;-65
2023/09/21 03:27:59;;;;;;;;;;;;;;;17.68;79.77;99719.84;5042622;28;19913;-65
2023/09/21 03:30:26;;;;;;;;;;;;;;;17.69;79.78;99715.44;5045595;28;19943;-65
2023/09/21 03:32:51;;;;;;;;;;;;;;;17.67;79.68;99706.69;5046621;28;19917;-65
2023/09/21 03:35:16;;;;;;;;;;;;;;;17.66;79.78;99718.16;5047112;28;19910;-65
2023/09/21 03:37:45;;;;;;;;;;;;;;;17.66;79.60;99716.38;5046146;28;19928;-65
2023/09/21 03:40:11;;;;;;;;;;;;;;;17.69;79.52;99715.44;5028759;28;19917;-65
2023/09/21 03:42:37;;;;;;;;;;;;;;;17.68;79.70;99721.59;5046599;28;19960;-65
2023/09/21 03:45:03;;;;;;;;;;;;;;;17.70;79.95;99711.91;5046964;28;19928;-65
2023/09/21 03:47:29;;;;;;;;;;;;;;;17.68;79.83;99709.31;5046660;28;19909;-64
2023/09/21 03:49:54;;;;;;;;;;;;;;;17.67;80.03;99704.94;5046553;28;19963;-65
2023/09/21 03:52:22;;;;;;;;;;;;;;;17.66;80.31;99700.56;5046283;28;19955;-65
2023/09/21 03:54:47;;;;;;;;;;;;;;;17.68;80.38;99697.88;5046064;28;19932;-65
2023/09/21 03:57:14;;;;;;;;;;;;;;;17.68;80.60;99697.88;5046410;28;19913;-65
2023/09/21 03:59:40;;;;;;;;;;;;;;;17.69;80.44;99694.34;5046579;28;19916;-65
2023/09/21 04:02:07;;;;;;;;;;;;;;;17.70;80.65;99696.09;5046444;28;19909;-64
2023/09/21 04:04:32;;;;;;;;;;;;;;;17.71;80.63;99687.25;5046501;28;19948;-65
2023/09/21 04:06:57;;;;;;;;;;;;;;;17.71;80.82;99692.53;5046315;28;19913;-65
2023/09/21 04:09:22;;;;;;;;;;;;;;;17.70;80.70;99685.56;5046285;28;19976;-65
2023/09/21 04:11:48;;;;;;;;;;;;;;;17.70;80.42;99686.41;5046460;28;19916;-65
2023/09/21 04:14:13;;;;;;;;;;;;;;;17.71;80.28;99688.16;5045366;28;19928;-65
2023/09/21 04:16:38;;;;;;;;;;;;;;;17.75;80.37;99688.06;5045824;28;19913;-65
2023/09/21 04:19:05;;;;;;;;;;;;;;;17.79;80.31;99701.13;5045904;28;19921;-65
2023/09/21 04:21:31;;;;;;;;;;;;;;;17.82;80.38;99697.56;5045973;28;19952;-65
2023/09/21 04:23:57;;;;;;;;;;;;;;;17.83;80.36;99686.97;5045920;28;20054;-65
2023/09/21 04:26:22;;;;;;;;;;;;;;;17.84;80.25;99688.72;5028356;28;19910;-65
2023/09/21 04:28:48;;;;;;;;;;;;;;;17.88;80.29;99685.06;5044947;28;19936;-65
2023/09/21 04:31:13;;;;;;;;;;;;;;;17.92;80.21;99685.91;5038296;28;19910;-65
2023/09/21 04:33:39;;;;;;;;;;;;;;;17.95;80.38;99684.97;5025665;28;19925;-65
2023/09/21 04:36:04;;;;;;;;;;;;;;;17.97;79.52;99685.78;5025808;28;19910;-65
2023/09/21 04:38:29;;;;;;;;;;;;;;;18.02;79.83;99676.88;5025825;28;19909;-65
2023/09/21 04:40:54;;;;;;;;;;;;;;;18.06;79.92;99688.19;5024541;28;19909;-65
2023/09/21 04:43:20;;;;;;;;;;;;;;;18.07;79.88;99674.09;5027234;28;19968;-65
2023/09/21 04:45:49;;;;;;;;;;;;;;;18.07;79.41;99669.72;5045406;28;19909;-65
2023/09/21 04:48:14;;;;;;;;;;;;;;;18.13;79.68;99673.94;5045206;28;20156;-65
2023/09/21 04:50:42;;;;;;;;;;;;;;;18.12;79.87;99674.84;5045517;28;19948;-65
2023/09/21 04:53:07;;;;;;;;;;;;;;;18.12;79.96;99680.13;5045023;28;19913;-65
2023/09/21 04:55:32;;;;;;;;;;;;;;;18.11;80.41;99683.66;5044879;28;20051;-65
2023/09/21 04:57:57;;;;;;;;;;;;;;;18.11;80.61;99672.25;5044904;28;19913;-65
2023/09/21 05:00:23;;;;;;;;;;;;;;;18.13;80.63;99678.34;5045318;28;19909;-65
2023/09/21 05:02:48;;;;;;;;;;;;;;;18.15;80.76;99673.91;5045384;28;20162;-65
2023/09/21 05:05:14;;;;;;;;;;;;;;;18.13;80.79;99678.34;5044917;28;19976;-65
2023/09/21 05:07:40;;;;;;;;;;;;;;;18.14;80.93;99677.44;5045169;28;19909;-65
2023/09/21 05:10:07;;;;;;;;;;;;;;;18.13;81.14;99679.19;5044999;28;19909;-65
2023/09/21 05:12:32;;;;;;;;;;;;;;;18.14;81.53;99673.03;5045066;28;20018;-65
2023/09/21 05:14:57;;;;;;;;;;;;;;;18.14;81.13;99659.84;5044881;28;20147;-65
2023/09/21 05:17:22;;;;;;;;;;;;;;;18.14;81.54;99659.84;5045057;28;20151;-65
2023/09/21 05:19:49;;;;;;;;;;;;;;;18.14;81.24;99659.84;5026974;28;19916;-65
2023/09/21 05:22:14;;;;;;;;;;;;;;;18.16;81.50;99652.78;5044960;28;19944;-65
2023/09/21 05:24:39;;;;;;;;;;;;;;;18.19;81.43;99655.34;5044370;28;20143;-65
2023/09/21 05:27:05;;;;;;;;;;;;;;;18.18;81.30;99661.50;5044117;28;19955;-65
2023/09/21 05:29:30;;;;;;;;;;;;;;;18.19;81.20;99655.34;5044418;28;20178;-65
2023/09/21 05:31:56;;;;;;;;;;;;;;;18.22;81.11;99657.03;5027181;28;19925;-65
2023/09/21 05:34:22;;;;;;;;;;;;;;;18.26;81.51;99658.66;5024668;28;19914;-65
2023/09/21 05:36:49;;;;;;;;;;;;;;;18.28;81.41;99655.97;5024728;28;19910;-65
2023/09/21 05:39:17;;;;;;;;;;;;;;;18.29;81.49;99657.72;5024903;28;19914;-65
2023/09/21 05:41:51;;;;;;;;;;;;;;;18.30;81.31;99648.91;5034425;28;20157;-65
2023/09/21 05:44:21;;;;;;;;;;;;;;;18.35;80.93;99657.53;5043450;28;19975;-65
2023/09/21 05:46:46;;;;;;;;;;;;;;;18.38;81.32;99652.19;5043929;28;20015;-65
2023/09/21 05:49:17;;;;;;;;;;;;;;;18.43;81.12;99650.28;5044211;28;19929;-65
2023/09/21 05:51:44;;;;;;;;;;;;;;;18.47;81.06;99651.06;5044028;28;19910;-65
2023/09/21 05:54:09;;;;;;;;;;;;;;;18.46;80.93;99655.47;5043489;28;19940;-65
2023/09/21 05:56:36;;;;;;;;;;;;;;;18.47;81.31;99654.56;5044157;28;20054;-65
2023/09/21 05:59:01;;;;;;;;;;;;;;;18.47;81.45;99651.94;5044138;28;19967;-65
2023/09/21 06:01:31;;;;;;;;;;;;;;;18.45;82.13;99659.03;5044085;28;20143;-65
2023/09/21 06:03:59;;;;;;;;;;;;;;;18.41;82.56;99647.69;5042984;28;19913;-65
2023/09/21 06:06:28;;;;;;;;;;;;;;;18.39;83.15;99662.72;5043623;28;19989;-65
2023/09/21 06:08:53;;;;;;;;;;;;;;;18.34;83.47;99651.41;5043945;28;20121;-65
2023/09/21 06:11:18;;;;;;;;;;;;;;;18.29;84.08;99655.94;5043824;28;19909;-65
2023/09/21 06:13:44;;;;;;;;;;;;;;;18.24;84.63;99669.25;5043994;28;19921;-64
2023/09/21 06:16:09;;;;;;;;;;;;;;;18.17;84.89;99659.75;5043698;28;19944;-63
2023/09/21 06:18:34;;;;;;;;;;;;;;;18.11;85.22;99669.63;5043509;28;20070;-62
2023/09/21 06:21:02;;;;;;;;;;;;;;;18.03;85.68;99665.44;5039529;28;19921;-62
2023/09/21 06:23:27;;;;;;;;;;;;;;;17.93;87.43;99670.97;5043954;28;19910;-62
2023/09/21 06:25:54;;;;;;;;;;;;;;;17.85;87.60;99668.50;5043758;28;19909;-62
2023/09/21 06:28:21;;;;;;;;;;;;;;;17.76;88.03;99669.59;5043564;28;19956;-62
2023/09/21 06:30:48;;;;;;;;;;;;;;;17.68;89.58;99666.28;5030642;28;21761;-62
2023/09/21 06:33:13;;;;;;;;;;;;;;;17.61;89.87;99665.56;5023908;28;19916;-62
2023/09/21 06:35:40;;;;;;;;;;;;;;;17.56;90.98;99677.97;5029109;28;19913;-62
2023/09/21 06:38:06;;;;;;;;;;;;;;;17.51;91.54;99679.84;5042784;28;19944;-62
2023/09/21 06:40:33;;;;;;;;;;;;;;;17.49;92.73;99674.63;5043892;28;19916;-62
2023/09/21 06:42:58;;;;;;;;;;;;;;;17.46;92.83;99669.41;5043459;28;19933;-62
2023/09/21 06:45:24;;;;;;;;;;;;;;;17.43;93.26;99679.19;5043225;28;20317;-62
2023/09/21 06:47:50;;;;;;;;;;;;;;;17.39;94.10;99681.00;5043354;28;19909;-62
2023/09/21 06:50:15;;;;;;;;;;;;;;;17.40;93.93;99689.78;5043309;28;19909;-61
2023/09/21 06:52:40;;;;;;;;;;;;;;;17.37;94.46;99682.81;5042250;28;19913;-62
2023/09/21 06:55:06;;;;;;;;;;;;;;;17.34;94.52;99688.16;5042852;28;19913;-61
2023/09/21 06:57:34;;;;;;;;;;;;;;;17.29;95.85;99695.28;5043317;28;20289;-61
2023/09/21 07:00:00;;;;;;;;;;;;;;;17.27;94.59;99703.22;5043128;28;19913;-61
2023/09/21 07:02:25;;;;;;;;;;;;;;;17.24;97.11;99699.81;5042600;28;20016;-61
2023/09/21 07:04:50;;;;;;;;;;;;;;;17.15;99.11;99685.06;5042574;28;20245;-61
2023/09/21 07:07:16;;;;;;;;;;;;;;;17.03;98.87;99699.34;5042803;28;19909;-61
2023/09/21 07:09:41;;;;;;;;;;;;;;;16.94;100.00;99692.50;5043294;28;20014;-61
2023/09/21 07:12:06;;;;;;;;;;;;;;;16.86;100.00;99695.28;5025435;28;20158;-61
2023/09/21 07:14:32;;;;;;;;;;;;;;;16.83;100.00;99695.34;5041166;28;19909;-61
2023/09/21 07:16:59;;;;;;;;;;;;;;;16.80;100.00;99692.78;5042826;28;20171;-61
2023/09/21 07:19:24;;;;;;;;;;;;;;;16.75;100.00;99689.38;5042960;28;20141;-61
2023/09/21 07:21:49;;;;;;;;;;;;;;;16.75;100.00;99684.09;5043069;28;19984;-61
2023/09/21 07:24:15;;;;;;;;;;;;;;;16.73;100.00;99685.03;5025078;28;19931;-61
2023/09/21 07:26:40;;;;;;;;;;;;;;;16.69;100.00;99685.09;5042855;28;19947;-61
2023/09/21 07:29:05;;;;;;;;;;;;;;;16.72;100.00;99686.81;5041594;28;19910;-61
2023/09/21 07:31:33;;;;;;;;;;;;;;;16.74;100.00;99685.00;5042908;28;19913;-61
2023/09/21 07:33:59;;;;;;;;;;;;;;;16.74;100.00;99687.63;5042954;28;19909;-61
2023/09/21 07:36:24;;;;;;;;;;;;;;;16.73;100.00;99688.56;5042760;28;19916;-61
2023/09/21 07:38:49;;;;;;;;;;;;;;;16.74;100.00;99681.50;5042969;28;19925;-61
2023/09/21 07:41:14;;;;;;;;;;;;;;;16.76;100.00;99677.09;5042758;28;20226;-61
2023/09/21 07:43:40;;;;;;;;;;;;;;;16.73;100.00;99683.28;5042388;28;20071;-61
2023/09/21 07:46:05;;;;;;;;;;;;;;;16.72;100.00;99694.69;5042751;28;19945;-61
2023/09/21 07:48:30;;;;;;;;;;;;;;;16.74;100.00;99698.16;5042752;28;19909;-61
2023/09/21 07:50:56;;;;;;;;;;;;;;;16.74;100.00;99698.16;5042977;28;20143;-61
2023/09/21 07:53:21;;;;;;;;;;;;;;;16.77;100.00;99695.47;5042567;28;20073;-61
2023/09/21 07:55:47;;;;;;;;;;;;;;;16.82;100.00;99700.66;5042515;28;19936;-61
2023/09/21 07:58:12;;;;;;;;;;;;;;;16.84;100.00;99698.84;5041873;28;19929;-61
2023/09/21 08:00:37;;;;;;;;;;;;;;;16.84;100.00;99693.56;5042166;28;19921;-61
2023/09/21 08:03:03;;;;;;;;;;;;;;;16.83;100.00;99700.63;5036268;28;19924;-61
2023/09/21 08:05:30;;;;;;;;;;;;;;;16.84;100.00;99702.34;5042102;28;19972;-62
2023/09/21 08:07:55;;;;;;;;;;;;;;;16.86;100.00;99711.06;5042328;28;19909;-61
2023/09/21 08:10:21;;;;;;;;;;;;;;;16.89;100.00;99706.66;5042732;28;19980;-61
2023/09/21 08:12:46;;;;;;;;;;;;;;;16.90;100.00;99711.03;5025012;28;19925;-61
2023/09/21 08:15:11;;;;;;;;;;;;;;;16.90;100.00;99717.19;5043580;28;19921;-61
2023/09/21 08:17:37;;;;;;;;;;;;;;;16.97;100.00;99721.38;5046001;28;19916;-62
2023/09/21 08:20:04;;;;;;;;;;;;;;;16.94;100.00;99729.34;5045263;28;19945;-62
2023/09/21 08:22:29;;;;;;;;;;;;;;;16.88;100.00;99726.00;5045850;28;19916;-62
2023/09/21 08:24:55;;;;;;;;;;;;;;;16.84;100.00;99726.03;5046123;28;19909;-61
2023/09/21 08:27:22;;;;;;;;;;;;;;;16.80;100.00;99729.63;5045702;28;19929;-62
2023/09/21 08:29:47;;;;;;;;;;;;;;;16.78;100.00;99731.41;5045745;28;19909;-61
2023/09/21 08:32:15;;;;;;;;;;;;;;;16.76;100.00;99742.88;5045890;28;20177;-61
2023/09/21 08:34:43;;;;;;;;;;;;;;;16.72;100.00;99747.31;5037703;28;19913;-62
2023/09/21 08:37:09;;;;;;;;;;;;;;;16.68;100.00;99753.53;5034743;28;19929;-62
2023/09/21 08:39:34;;;;;;;;;;;;;;;16.61;100.00;99755.41;5036567;28;19963;-62
2023/09/21 08:42:00;;;;;;;;;;;;;;;16.57;100.00;99769.50;5037404;28;19916;-62
2023/09/21 08:44:26;;;;;;;;;;;;;;;16.58;100.00;99770.38;5036080;28;19925;-62
2023/09/21 08:46:52;;;;;;;;;;;;;;;16.49;100.00;99761.75;5024819;28;20043;-62
2023/09/21 08:49:18;;;;;;;;;;;;;;;16.39;100.00;99773.31;5041588;28;19989;-62
2023/09/21 08:52:03;;;;;;;;;;;;;;;16.37;100.00;99771.63;5038888;28;19926;-62
2023/09/21 08:54:28;;;;;;;;;;;;;;;16.30;100.00;99779.59;5033789;28;20067;-62
2023/09/21 08:56:55;;;;;;;;;;;;;;;16.27;100.00;99777.03;5041802;28;20138;-62
2023/09/21 08:59:21;;;;;;;;;;;;;;;16.26;100.00;99780.56;5042768;28;20170;-62
2023/09/21 09:01:46;;;;;;;;;;;;;;;16.24;100.00;99784.97;5041554;28;19928;-62
2023/09/21 09:04:12;;;;;;;;;;;;;;;16.24;100.00;99776.25;5040624;28;19937;-62
2023/09/21 09:06:37;;;;;;;;;;;;;;;16.19;100.00;99767.56;5038576;28;20634;-62
2023/09/21 09:09:02;;;;;;;;;;;;;;;16.20;100.00;99775.41;5039676;28;19955;-62
2023/09/21 09:11:36;;;;;;;;;;;;;;;16.22;100.00;99763.13;5043319;28;19932;-62
2023/09/21 09:14:02;;;;;;;;;;;;;;;16.24;100.00;99776.25;5024520;28;19917;-63
2023/09/21 09:16:27;;;;;;;;;;;;;;;16.19;100.00;99775.44;5043905;28;19929;-63
2023/09/21 09:18:53;;;;;;;;;;;;;;;16.13;100.00;99774.66;5043969;28;19959;-62
2023/09/21 09:21:18;;;;;;;;;;;;;;;16.13;100.00;99785.19;5045041;28;20039;-62
2023/09/21 09:23:44;;;;;;;;;;;;;;;16.13;100.00;99774.66;5044563;28;19937;-63
2023/09/21 09:26:11;;;;;;;;;;;;;;;16.16;100.00;99768.47;5044047;28;19976;-62
2023/09/21 09:28:37;;;;;;;;;;;;;;;16.23;100.00;99763.97;5044877;28;19925;-63
2023/09/21 09:31:06;;;;;;;;;;;;;;;16.22;100.00;99754.34;5025957;28;19967;-63
2023/09/21 09:33:33;;;;;;;;;;;;;;;16.21;100.00;99761.38;5044104;28;19913;-63
2023/09/21 09:35:58;;;;;;;;;;;;;;;16.26;100.00;99756.03;5044705;28;20548;-63
2023/09/21 09:38:23;;;;;;;;;;;;;;;16.30;100.00;99757.72;5044006;28;19917;-63
2023/09/21 09:40:49;;;;;;;;;;;;;;;16.35;100.00;99747.97;5044649;28;19909;-63
2023/09/21 09:43:15;;;;;;;;;;;;;;;16.40;100.00;99747.91;5044090;28;19976;-63
2023/09/21 09:45:42;;;;;;;;;;;;;;;16.43;100.00;99753.97;5043495;28;20048;-63
2023/09/21 09:48:11;;;;;;;;;;;;;;;16.45;100.00;99752.19;5044107;28;19955;-63
2023/09/21 09:50:41;;;;;;;;;;;;;;;16.50;100.00;99755.59;5044285;28;19909;-63
2023/09/21 09:53:07;;;;;;;;;;;;;;;16.53;100.00;99757.31;5044084;28;19920;-63
2023/09/21 09:55:33;;;;;;;;;;;;;;;16.56;100.00;99756.41;5044307;28;19909;-63
2023/09/21 09:57:59;;;;;;;;;;;;;;;16.56;100.00;99752.00;5044324;28;19909;-63
2023/09/21 10:00:27;;;;;;;;;;;;;;;16.59;100.00;99748.44;5043725;28;19952;-63
2023/09/21 10:02:53;;;;;;;;;;;;;;;16.56;100.00;99746.72;5041196;28;19952;-63
2023/09/21 10:05:22;;;;;;;;;;;;;;;16.52;100.00;99735.41;5042866;28;19919;-63
2023/09/21 10:07:49;;;;;;;;;;;;;;;16.51;100.00;99732.78;5043601;28;19913;-63
2023/09/21 10:10:15;;;;;;;;;;;;;;;16.50;100.00;99734.56;5043724;28;20066;-63
2023/09/21 10:12:43;;;;;;;;;;;;;;;16.54;100.00;99730.13;5042357;28;19913;-63
2023/09/21 10:15:13;;;;;;;;;;;;;;;16.58;100.00;99730.91;5038023;28;19910;-64
2023/09/21 10:17:38;;;;;;;;;;;;;;;16.58;100.00;99728.28;5026314;28;20056;-63
2023/09/21 10:20:16;;;;;;;;;;;;;;;16.60;100.00;99726.53;5043467;28;20177;-63
2023/09/21 10:22:44;;;;;;;;;;;;;;;16.67;100.00;99720.25;5042792;28;19925;-63
2023/09/21 10:25:13;;;;;;;;;;;;;;;16.67;100.00;99713.22;5043637;28;19913;-63
2023/09/21 10:27:39;;;;;;;;;;;;;;;16.68;100.00;99724.59;5042567;28;19956;-63
2023/09/21 10:30:07;;;;;;;;;;;;;;;16.69;100.00;99718.44;5043193;28;19975;-63
2023/09/21 10:32:47;;;;;;;;;;;;;;;16.73;100.00;99717.47;5043650;28;19909;-63
2023/09/21 10:35:14;;;;;;;;;;;;;;;16.78;100.00;99715.59;5043412;28;20205;-63
2023/09/21 10:37:40;;;;;;;;;;;;;;;16.86;100.00;99718.97;5043511;28;19916;-63
2023/09/21 10:40:08;;;;;;;;;;;;;;;16.93;100.00;99711.84;5042524;28;19992;-62
2023/09/21 10:42:34;;;;;;;;;;;;;;;16.97;100.00;99707.38;5042660;28;19913;-63
2023/09/21 10:45:00;;;;;;;;;;;;;;;17.01;100.00;99707.28;5042688;28;19944;-63
2023/09/21 10:47:28;;;;;;;;;;;;;;;17.06;100.00;99699.31;5038983;28;20163;-63
2023/09/21 10:49:57;;;;;;;;;;;;;;;17.12;100.00;99701.78;5035028;28;19913;-63
2023/09/21 10:52:24;;;;;;;;;;;;;;;17.21;100.00;99692.84;5042049;28;19909;-63
2023/09/21 10:54:51;;;;;;;;;;;;;;;17.29;100.00;99701.44;5025213;28;19933;-63
2023/09/21 10:57:21;;;;;;;;;;;;;;;17.36;100.00;99694.25;5042571;28;20036;-63
2023/09/21 10:59:46;;;;;;;;;;;;;;;17.41;100.00;99680.97;5038884;28;20177;-63
2023/09/21 11:02:11;;;;;;;;;;;;;;;17.46;100.00;99682.59;5042567;28;19909;-63
2023/09/21 11:04:38;;;;;;;;;;;;;;;17.51;100.00;99672.81;5042645;28;19913;-63
2023/09/21 11:07:03;;;;;;;;;;;;;;;17.54;100.00;99661.34;5025245;28;20097;-63
2023/09/21 11:09:30;;;;;;;;;;;;;;;17.58;100.00;99660.34;5041988;28;19917;-63
2023/09/21 11:11:56;;;;;;;;;;;;;;;17.60;100.00;99658.56;5043301;28;20143;-63
2023/09/21 11:14:22;;;;;;;;;;;;;;;17.64;100.00;99662.84;5042332;28;19916;-63
2023/09/21 11:16:47;;;;;;;;;;;;;;;17.70;100.00;99657.44;5042130;28;19917;-63
2023/09/21 11:19:12;;;;;;;;;;;;;;;17.73;100.00;99659.97;5042180;28;19920;-63
2023/09/21 11:21:38;;;;;;;;;;;;;;;17.76;100.00;99647.66;5042708;28;19909;-63
2023/09/21 11:24:06;;;;;;;;;;;;;;;17.79;100.00;99656.34;5043006;28;20101;-63
2023/09/21 11:26:32;;;;;;;;;;;;;;;17.82;100.00;99648.34;5024903;28;19976;-63
2023/09/21 11:28:58;;;;;;;;;;;;;;;17.85;100.00;99653.53;5043000;28;19913;-62
2023/09/21 11:31:23;;;;;;;;;;;;;;;17.86;100.00;99655.28;5042811;28;20016;-63
2023/09/21 11:33:48;;;;;;;;;;;;;;;17.89;100.00;99644.66;5042544;28;19952;-62
2023/09/21 11:36:13;;;;;;;;;;;;;;;18.00;100.00;99688.34;5041563;28;20102;-63
2023/09/21 11:38:40;;;;;;;;;;;;;;;18.17;100.00;99683.50;5037028;28;19913;-63
2023/09/21 11:41:05;;;;;;;;;;;;;;;17.80;100.00;99678.28;5017202;28;19933;-62
2023/09/21 11:43:30;;;;;;;;;;;;;;;17.65;100.00;99695.31;5035987;28;19933;-62
2023/09/21 11:45:55;;;;;;;;;;;;;;;17.47;100.00;99694.88;5037224;28;19943;-62
2023/09/21 11:48:24;;;;;;;;;;;;;;;17.48;100.00;99696.59;5031552;28;19921;-62
2023/09/21 11:50:49;;;;;;;;;;;;;;;17.24;100.00;99695.38;5037034;28;19916;-62
2023/09/21 11:53:19;;;;;;;;;;;;;;;17.08;100.00;99681.69;5037841;28;19929;-63
2023/09/21 11:55:45;;;;;;;;;;;;;;;16.95;100.00;99703.94;5039334;28;20151;-63
2023/09/21 11:58:13;;;;;;;;;;;;;;;16.66;100.00;99706.19;5039211;28;19921;-63
2023/09/21 12:00:49;;;;;;;;;;;;;;;16.45;100.00;99714.50;5041990;28;19955;-63
2023/09/21 12:03:16;;;;;;;;;;;;;;;16.32;100.00;99720.00;5038442;28;19924;-63
2023/09/21 12:05:44;;;;;;;;;;;;;;;16.21;100.00;99716.69;5031698;28;19913;-63
2023/09/21 12:08:14;;;;;;;;;;;;;;;16.02;100.00;99716.16;5026068;28;19917;-64
2023/09/21 12:10:40;;;;;;;;;;;;;;;15.95;100.00;99717.16;5026619;28;19913;-63
2023/09/21 12:13:06;;;;;;;;;;;;;;;15.90;100.00;99698.84;5045659;28;19944;-64
2023/09/21 12:15:33;;;;;;;;;;;;;;;15.74;100.00;99692.94;5046334;28;20186;-64
2023/09/21 12:17:58;;;;;;;;;;;;;;;15.69;100.00;99692.13;5038183;28;19917;-64
2023/09/21 12:20:25;;;;;;;;;;;;;;;15.74;100.00;99685.06;5033134;28;19972;-64
2023/09/21 12:22:51;;;;;;;;;;;;;;;15.74;100.00;99677.19;5036526;28;19971;-64
2023/09/21 12:25:16;;;;;;;;;;;;;;;15.78;100.00;99684.13;5036511;28;19909;-64
2023/09/21 12:27:42;;;;;;;;;;;;;;;15.84;100.00;99677.91;5043682;28;19913;-64
2023/09/21 12:30:14;;;;;;;;;;;;;;;15.85;100.00;99669.16;5045271;28;19945;-65
2023/09/21 12:32:40;;;;;;;;;;;;;;;15.90;100.00;99676.94;5045202;28;19944;-65
2023/09/21 12:35:07;;;;;;;;;;;;;;;15.92;100.00;99675.19;5028252;28;19915;-65
2023/09/21 12:37:32;;;;;;;;;;;;;;;15.92;100.00;99683.06;5045647;28;20107;-64
2023/09/21 12:39:58;;;;;;;;;;;;;;;15.97;100.00;99689.09;5045914;28;19948;-64